MMML

General Rodolfo Sánchez Taboada International Airport

Mexicali, Mexico
TAF MMML 161644Z 1618/1718 22010KT P6SM SCT060 FM170300 24005KT P6SM SCT100 SCT200 FM171000 12005KT P6SM BKN050 FM171700 22010KT P6SM BKN100
Issued Valid From Valid To
Jul-16 @ 16:44 UTC
(8 hours ago)
Jul-16 @ 18:00 UTC
(6 hours ago)
Jul-17 @ 18:00 UTC
(in 18 hours)
Jul-16 @ 18:00 to Jul-17 @ 03:00
TAF MMML 161644Z 1618/1718 22010KT P6SM SCT060
Wind Visibility Clouds
220° at 10 knots Greater than 6 miles
  • Scattered at 6,000' AGL
From Jul-17 @ 03:00 to Jul-17 @ 10:00
FM170300 24005KT P6SM SCT100 SCT200
Wind Visibility Clouds
240° at 5 knots Greater than 6 miles
  • Scattered at 10,000' AGL
  • Scattered at 20,000' AGL
From Jul-17 @ 10:00 to Jul-17 @ 17:00
FM171000 12005KT P6SM BKN050
Wind Visibility Clouds
120° at 5 knots Greater than 6 miles
  • Broken at 5,000' AGL
From Jul-17 @ 17:00 to Jul-17 @ 18:00
FM171700 22010KT P6SM BKN100
Wind Visibility Clouds
220° at 10 knots Greater than 6 miles
  • Broken at 10,000' AGL
TAF MMML 161644Z 1618/1718 22010KT P6SM SCT060 FM170300 24005KT P6SM SCT100 SCT200 FM171000 12005KT P6SM BKN050 FM171700 22010KT P6SM BKN100
Issued Jul-16 @ 16:44 UTC
(8 hours ago)
Valid From Jul-16 @ 18:00 UTC
(6 hours ago)
Valid To Jul-17 @ 18:00 UTC
(in 18 hours)
Jul-16 @ 18:00 - Jul-17 @ 03:00
Wind Visibility
220° at 10 knots Greater than 6 miles
Clouds
  • Scattered at 6,000' AGL
From Jul-17 @ 03:00 - Jul-17 @ 10:00
Wind Visibility
240° at 5 knots Greater than 6 miles
Clouds
  • Scattered at 10,000' AGL
  • Scattered at 20,000' AGL
From Jul-17 @ 10:00 - Jul-17 @ 17:00
Wind Visibility
120° at 5 knots Greater than 6 miles
Clouds
  • Broken at 5,000' AGL
From Jul-17 @ 17:00 - Jul-17 @ 18:00
Wind Visibility
220° at 10 knots Greater than 6 miles
Clouds
  • Broken at 10,000' AGL